Time;durP1;ratioP1;P1;durP2;ratioP2;P2;SDS_P1;SDS_P2;PMS_P1;PMS_P2;Temp;Humidity;BMP_temperature;BMP_pressure;BME280_temperature;BME280_humidity;BME280_pressure;Samples;Min_cycle;Max_cycle;Signal;HPM_P1;HPM_P2
2023/06/19 03:54:58;;;;;;;8.73;6.40;;;;;;;16.33;100.00;100361.59;6009622;28;20083;-84
2023/06/19 03:58:02;;;;;;;10.45;6.30;;;;;;;16.29;100.00;100363.06;5286275;33;34313;-85
2023/06/19 04:01:05;;;;;;;10.15;6.55;;;;;;;16.35;100.00;100364.09;5265709;33;34470;-85
2023/06/19 04:04:08;;;;;;;11.27;6.97;;;;;;;16.41;100.00;100357.78;5248396;33;34719;-84
2023/06/19 04:07:11;;;;;;;9.00;6.35;;;;;;;16.39;100.00;100362.63;5259432;33;33635;-85
2023/06/19 04:10:16;;;;;;;8.05;5.85;;;;;;;16.44;100.00;100354.63;5248180;33;34908;-85
2023/06/19 04:13:18;;;;;;;8.60;6.00;;;;;;;16.47;100.00;100351.50;5272417;33;33783;-84
2023/06/19 04:16:21;;;;;;;9.80;6.50;;;;;;;16.66;100.00;100353.25;5272128;33;33525;-84
2023/06/19 04:19:24;;;;;;;9.95;6.43;;;;;;;16.59;100.00;100355.19;5247884;33;35101;-84
2023/06/19 04:22:27;;;;;;;10.18;6.72;;;;;;;16.68;100.00;100359.31;5259443;33;33935;-85
2023/06/19 04:25:30;;;;;;;9.68;6.10;;;;;;;16.85;100.00;100356.94;5272365;33;33844;-85
2023/06/19 04:28:33;;;;;;;8.52;6.12;;;;;;;16.98;100.00;100361.47;5271661;33;34721;-85
2023/06/19 04:31:40;;;;;;;10.30;6.62;;;;;;;17.07;100.00;100365.56;5273269;33;33782;-85
2023/06/19 04:34:45;;;;;;;9.98;6.47;;;;;;;17.18;100.00;100367.56;5264029;33;34050;-84
2023/06/19 04:37:48;;;;;;;9.30;6.12;;;;;;;17.27;100.00;100364.59;5250211;33;33709;-85
2023/06/19 04:40:52;;;;;;;7.47;6.07;;;;;;;17.24;100.00;100360.41;5265748;33;35519;-85
2023/06/19 04:43:55;;;;;;;9.15;6.25;;;;;;;17.42;100.00;100359.63;5271507;33;34131;-84
2023/06/19 04:47:00;;;;;;;11.38;7.03;;;;;;;17.55;100.00;100364.97;5243505;33;34316;-84
2023/06/19 04:50:04;;;;;;;11.07;6.72;;;;;;;17.73;100.00;100364.16;5271792;33;33623;-85
2023/06/19 04:53:07;;;;;;;11.07;6.65;;;;;;;17.89;100.00;100371.75;5271581;33;33769;-85
2023/06/19 04:56:09;;;;;;;10.10;6.32;;;;;;;17.99;100.00;100368.53;5258439;33;33756;-85
2023/06/19 04:59:17;;;;;;;9.23;6.72;;;;;;;18.05;100.00;100367.59;5247305;33;33986;-85
2023/06/19 05:02:20;;;;;;;13.07;6.47;;;;;;;18.05;100.00;100364.06;5271617;33;33932;-84
2023/06/19 05:05:23;;;;;;;8.88;6.32;;;;;;;18.18;100.00;100363.06;5242763;33;33958;-85
2023/06/19 05:08:26;;;;;;;8.88;6.15;;;;;;;18.21;100.00;100376.22;5250338;33;34991;-86
2023/06/19 05:11:29;;;;;;;8.35;6.00;;;;;;;18.18;100.00;100369.34;5257326;33;34129;-88
2023/06/19 05:14:32;;;;;;;8.80;5.90;;;;;;;18.35;100.00;100378.56;5245996;33;34015;-87
2023/06/19 05:17:35;;;;;;;7.82;5.60;;;;;;;18.65;97.54;100387.81;5252075;33;33841;-89
2023/06/19 05:20:37;;;;;;;10.77;6.37;;;;;;;18.83;96.34;100386.97;5240701;33;33906;-88
2023/06/19 05:23:40;;;;;;;9.55;5.90;;;;;;;18.84;96.97;100389.47;5246618;33;34305;-85
2023/06/19 05:26:43;;;;;;;8.57;5.70;;;;;;;18.71;95.12;100386.91;5230329;33;34089;-85
2023/06/19 05:29:46;;;;;;;10.45;6.03;;;;;;;18.61;95.11;100392.09;5247112;33;33483;-85
2023/06/19 05:32:49;;;;;;;7.43;5.95;;;;;;;18.51;96.44;100398.06;5247457;33;34864;-85
2023/06/19 05:35:53;;;;;;;10.40;6.80;;;;;;;18.38;98.58;100388.16;5243170;33;33476;-85
2023/06/19 05:38:56;;;;;;;10.95;6.10;;;;;;;18.32;98.37;100389.91;5230445;33;33555;-85
2023/06/19 05:41:59;;;;;;;7.37;5.60;;;;;;;18.50;97.51;100393.69;5239668;33;34187;-85
2023/06/19 05:45:06;;;;;;;9.65;6.15;;;;;;;18.68;96.27;100388.19;5247359;33;35217;-85
2023/06/19 05:48:09;;;;;;;8.38;6.03;;;;;;;19.00;94.08;100382.50;5253460;33;33979;-85
2023/06/19 05:51:12;;;;;;;9.02;6.00;;;;;;;19.18;91.77;100390.63;5229380;33;33758;-85
2023/06/19 05:54:17;;;;;;;8.45;5.93;;;;;;;19.38;89.43;100384.00;5233958;33;33848;-85
2023/06/19 05:57:20;;;;;;;7.80;5.68;;;;;;;19.55;88.27;100393.16;5251587;33;35261;-85
2023/06/19 06:00:24;;;;;;;8.25;5.22;;;;;;;19.83;86.49;100406.16;5240666;33;34837;-86
2023/06/19 06:03:27;;;;;;;6.97;5.62;;;;;;;20.00;86.43;100399.94;5238463;34;33879;-86
2023/06/19 06:06:30;;;;;;;8.18;6.03;;;;;;;20.13;86.17;100410.66;5211657;34;33612;-84
2023/06/19 06:09:33;;;;;;;8.23;6.43;;;;;;;20.33;85.34;100407.53;5218589;34;34743;-85
2023/06/19 06:12:36;;;;;;;8.13;6.10;;;;;;;20.48;84.09;100405.09;5223313;34;33853;-85
2023/06/19 06:15:39;;;;;;;8.38;6.15;;;;;;;20.50;83.44;100411.13;5222347;34;35070;-86
2023/06/19 06:18:42;;;;;;;8.88;6.47;;;;;;;20.71;83.06;100400.63;5237696;34;33413;-85
2023/06/19 06:21:44;;;;;;;9.00;6.07;;;;;;;20.93;81.82;100406.25;5213106;34;33542;-85
2023/06/19 06:24:50;;;;;;;9.52;6.68;;;;;;;21.03;80.73;100400.94;5214145;34;33793;-86
2023/06/19 06:27:53;;;;;;;9.02;6.07;;;;;;;21.09;80.67;100410.09;5225424;34;34854;-86
2023/06/19 06:30:56;;;;;;;11.55;6.40;;;;;;;21.23;80.62;100408.69;5213203;34;33616;-85
2023/06/19 06:33:59;;;;;;;9.60;7.00;;;;;;;21.35;78.84;100403.97;5225146;34;34400;-85
2023/06/19 06:37:02;;;;;;;9.18;6.47;;;;;;;21.37;78.60;100406.50;5213176;34;33434;-86
2023/06/19 06:40:09;;;;;;;8.95;5.72;;;;;;;21.40;79.33;100400.53;5214944;34;33680;-86
2023/06/19 06:43:12;;;;;;;8.70;6.15;;;;;;;21.55;78.89;100408.16;5238247;34;33900;-86
2023/06/19 06:46:15;;;;;;;9.75;6.80;;;;;;;21.86;76.71;100407.53;5214146;34;34777;-86
2023/06/19 06:49:18;;;;;;;14.00;6.40;;;;;;;22.07;75.95;100410.56;5223141;33;34411;-86
2023/06/19 06:52:21;;;;;;;9.32;6.18;;;;;;;22.23;75.11;100414.38;5253764;33;33932;-86
2023/06/19 06:55:24;;;;;;;13.40;6.32;;;;;;;22.43;75.08;100409.16;5236270;33;33857;-86
2023/06/19 06:58:27;;;;;;;9.65;6.75;;;;;;;22.69;74.84;100413.03;5272751;33;33805;-85
2023/06/19 07:01:30;;;;;;;8.32;6.30;;;;;;;22.69;73.83;100412.19;5231045;33;34016;-85
2023/06/19 07:04:33;;;;;;;11.12;6.07;;;;;;;22.85;72.81;100409.38;5230692;33;33810;-85
2023/06/19 07:07:36;;;;;;;8.90;6.53;;;;;;;22.83;72.12;100407.97;5247866;33;33873;-85
2023/06/19 07:10:39;;;;;;;9.55;6.50;;;;;;;23.00;71.62;100410.66;5272048;33;34149;-85
2023/06/19 07:13:42;;;;;;;8.10;5.90;;;;;;;23.19;70.18;100414.66;5273016;33;34736;-85
2023/06/19 07:16:45;;;;;;;8.80;5.85;;;;;;;23.23;70.30;100406.75;5247067;33;34599;-85
2023/06/19 07:19:48;;;;;;;8.45;5.87;;;;;;;23.45;68.39;100401.16;5232865;34;34093;-85
2023/06/19 07:22:52;;;;;;;11.00;6.68;;;;;;;23.70;66.63;100400.56;5251349;33;33881;-85
2023/06/19 07:25:55;;;;;;;8.88;5.97;;;;;;;23.71;66.95;100404.94;5241010;33;34441;-85
2023/06/19 07:28:59;;;;;;;8.60;6.28;;;;;;;23.83;67.15;100400.06;5245647;33;33484;-89
2023/06/19 07:32:03;;;;;;;13.70;6.37;;;;;;;23.84;65.79;100385.25;5233116;33;35079;-89
2023/06/19 07:35:07;;;;;;;9.43;6.35;;;;;;;23.93;67.33;100393.84;5254653;33;33585;-89
2023/06/19 07:38:10;;;;;;;13.23;6.53;;;;;;;24.12;65.15;100391.44;5241746;33;34814;-86
2023/06/19 07:41:13;;;;;;;8.70;6.00;;;;;;;24.34;64.31;100391.28;5241664;33;33459;-86
2023/06/19 07:44:17;;;;;;;8.13;5.62;;;;;;;24.66;65.05;100396.66;5240700;33;33748;-85
2023/06/19 07:47:20;;;;;;;8.95;6.07;;;;;;;24.99;60.65;100400.84;5242413;33;32637;-85
2023/06/19 07:50:23;;;;;;;10.43;6.03;;;;;;;25.06;60.81;100395.88;5254119;33;33963;-85
2023/06/19 07:53:29;;;;;;;9.93;5.85;;;;;;;25.34;59.90;100394.56;5249043;33;34720;-85
2023/06/19 07:56:33;;;;;;;7.25;5.60;;;;;;;25.66;58.52;100384.34;5242452;33;33378;-85
2023/06/19 07:59:36;;;;;;;8.95;5.85;;;;;;;25.60;58.80;100389.03;5255827;33;32187;-85
2023/06/19 08:02:40;;;;;;;8.77;5.80;;;;;;;25.63;57.90;100387.66;5243672;33;33812;-87
2023/06/19 08:05:43;;;;;;;9.60;6.00;;;;;;;25.71;58.89;100387.06;5245099;33;33899;-86
2023/06/19 08:08:46;;;;;;;7.85;5.55;;;;;;;25.89;58.58;100380.22;5232518;33;33838;-86
2023/06/19 08:11:49;;;;;;;11.73;6.18;;;;;;;26.23;58.82;100380.34;5256969;33;33971;-87
2023/06/19 08:14:52;;;;;;;7.30;5.70;;;;;;;26.43;57.08;100379.44;5239576;33;35114;-86
2023/06/19 08:17:55;;;;;;;9.82;6.12;;;;;;;26.41;56.64;100376.13;5236259;33;34534;-86
2023/06/19 08:20:58;;;;;;;5.90;4.85;;;;;;;26.77;56.21;100378.75;5237476;34;33844;-86
2023/06/19 08:24:02;;;;;;;9.35;5.35;;;;;;;27.10;53.33;100382.66;5224043;34;33855;-86
2023/06/19 08:27:05;;;;;;;6.15;4.68;;;;;;;27.19;52.06;100377.38;5236676;34;33791;-86
2023/06/19 08:30:08;;;;;;;5.82;4.87;;;;;;;27.54;52.49;100374.28;5237245;34;33863;-86
2023/06/19 08:33:13;;;;;;;7.20;4.72;;;;;;;27.81;50.29;100370.97;5224141;34;33897;-86
2023/06/19 08:36:16;;;;;;;8.43;4.90;;;;;;;27.70;50.92;100374.97;5249932;33;34399;-86
2023/06/19 08:39:22;;;;;;;6.43;5.22;;;;;;;27.52;52.64;100383.97;5253922;33;34822;-86
2023/06/19 08:42:25;;;;;;;5.80;4.80;;;;;;;28.06;50.54;100376.56;5253642;33;33915;-86
2023/06/19 08:45:28;;;;;;;6.78;4.93;;;;;;;28.12;49.98;100376.19;5229716;33;33911;-86
2023/06/19 08:48:31;;;;;;;6.65;5.00;;;;;;;27.90;50.39;100375.87;5230182;33;33865;-86
2023/06/19 08:51:33;;;;;;;7.00;4.10;;;;;;;28.04;50.59;100376.84;5241308;33;34894;-87
2023/06/19 08:54:43;;;;;;;6.22;4.62;;;;;;;27.84;49.91;100371.53;5254030;33;33876;-86
2023/06/19 08:57:49;;;;;;;5.75;5.00;;;;;;;27.84;50.87;100377.88;5241391;33;33478;-86
2023/06/19 09:00:51;;;;;;;6.18;4.70;;;;;;;27.79;49.95;100372.41;5249189;33;33693;-86
2023/06/19 09:03:54;;;;;;;7.47;4.75;;;;;;;27.83;49.51;100370.72;5241557;33;34416;-86
2023/06/19 09:07:04;;;;;;;5.57;5.00;;;;;;;28.39;49.14;100372.78;5229817;33;33979;-86
2023/06/19 09:10:17;;;;;;;5.30;4.50;;;;;;;28.40;48.05;100363.38;5254232;33;33543;-86
2023/06/19 09:13:20;;;;;;;6.03;5.05;;;;;;;28.48;46.46;100364.69;5254049;33;33752;-86
2023/06/19 09:16:24;;;;;;;5.05;4.53;;;;;;;28.66;46.24;100357.50;5241595;33;34555;-86
2023/06/19 09:19:27;;;;;;;5.72;4.47;;;;;;;28.51;46.52;100360.50;5244466;33;33861;-86
2023/06/19 09:22:30;;;;;;;8.07;5.00;;;;;;;28.63;46.00;100367.22;5226094;33;34070;-86
2023/06/19 09:25:48;;;;;;;7.18;5.25;;;;;;;28.60;45.74;100359.50;5230492;33;33875;-90
2023/06/19 09:28:51;;;;;;;8.68;4.78;;;;;;;28.71;44.75;100355.47;5241678;33;33931;-87
2023/06/19 09:31:56;;;;;;;7.82;4.65;;;;;;;28.94;45.32;100359.28;5241713;33;33505;-87
2023/06/19 09:34:59;;;;;;;8.00;4.72;;;;;;;28.87;44.93;100356.09;5230055;33;34405;-86
2023/06/19 09:38:02;;;;;;;5.57;4.55;;;;;;;29.35;45.00;100350.31;5241391;33;34386;-86
2023/06/19 09:41:06;;;;;;;7.90;4.57;;;;;;;29.81;41.45;100349.53;5242283;33;34610;-86
2023/06/19 09:44:12;;;;;;;6.03;4.22;;;;;;;30.02;39.73;100341.59;5254860;33;34654;-86
2023/06/19 09:47:22;;;;;;;6.65;4.50;;;;;;;30.10;40.19;100345.63;5254229;33;34610;-86
2023/06/19 09:50:27;;;;;;;5.65;4.40;;;;;;;30.08;38.05;100350.66;5265289;33;34007;-87
2023/06/19 09:53:31;;;;;;;6.03;4.37;;;;;;;30.04;36.56;100347.69;5266432;33;33314;-86
2023/06/19 09:56:37;;;;;;;5.97;4.40;;;;;;;29.83;37.14;100349.19;5241329;33;33957;-86
2023/06/19 09:59:42;;;;;;;9.88;4.65;;;;;;;29.95;36.76;100349.53;5218569;34;34076;-85
2023/06/19 10:02:47;;;;;;;4.55;4.15;;;;;;;30.08;36.26;100334.00;5246620;33;34009;-85
2023/06/19 10:05:58;;;;;;;5.18;4.25;;;;;;;30.47;37.00;100333.44;5242127;33;33787;-85
2023/06/19 10:09:09;;;;;;;6.10;4.72;;;;;;;30.45;36.41;100332.94;5242357;33;33761;-85
2023/06/19 10:12:12;;;;;;;5.35;4.43;;;;;;;30.75;35.65;100318.66;5254042;33;33480;-86
2023/06/19 10:15:18;;;;;;;5.90;4.50;;;;;;;30.94;33.94;100320.12;5228515;33;34818;-86
2023/06/19 10:18:21;;;;;;;6.37;4.28;;;;;;;31.13;35.18;100317.16;5252672;33;33413;-86
2023/06/19 10:21:24;;;;;;;6.57;4.35;;;;;;;31.20;34.23;100322.28;5228989;33;33987;-86
2023/06/19 10:24:27;;;;;;;5.35;4.40;;;;;;;30.90;35.64;100319.13;5239737;33;33693;-86
2023/06/19 10:27:37;;;;;;;6.20;4.30;;;;;;;30.89;34.42;100313.88;5239883;33;33773;-86
2023/06/19 10:30:40;;;;;;;5.80;4.30;;;;;;;31.06;33.95;100310.38;5250759;33;33555;-86
2023/06/19 10:33:42;;;;;;;8.52;4.80;;;;;;;31.43;34.74;100317.53;5229069;33;34831;-85
2023/06/19 10:36:45;;;;;;;5.20;4.12;;;;;;;31.68;33.25;100313.25;5251103;33;34764;-86
2023/06/19 10:39:48;;;;;;;6.72;4.43;;;;;;;31.80;34.28;100313.44;5225656;33;35068;-86
2023/06/19 10:42:51;;;;;;;5.65;4.62;;;;;;;32.30;33.18;100301.97;5228775;34;34343;-86
2023/06/19 10:45:54;;;;;;;5.18;4.45;;;;;;;32.58;32.31;100298.88;5223259;33;34031;-86
2023/06/19 10:49:00;;;;;;;6.93;5.00;;;;;;;32.74;32.25;100302.81;5221964;34;32789;-86
2023/06/19 10:52:04;;;;;;;7.93;4.70;;;;;;;32.58;33.41;100298.88;5238777;33;33389;-86
2023/06/19 10:55:08;;;;;;;7.43;4.70;;;;;;;33.37;30.45;100297.63;5224422;33;33552;-86
2023/06/19 10:58:10;;;;;;;4.28;3.78;;;;;;;33.71;30.96;100300.69;5242455;33;34720;-90
2023/06/19 11:01:14;;;;;;;5.53;4.25;;;;;;;34.11;29.79;100297.53;5226780;34;32662;-89
2023/06/19 11:04:17;;;;;;;4.90;4.40;;;;;;;34.48;29.36;100295.78;5254622;33;35406;-89
2023/06/19 11:07:22;;;;;;;5.15;4.65;;;;;;;34.27;29.06;100296.59;5245114;33;34257;-87
2023/06/19 11:10:28;;;;;;;5.85;4.15;;;;;;;34.03;28.94;100296.41;5255864;33;34865;-86
2023/06/19 11:13:31;;;;;;;5.65;4.50;;;;;;;33.99;30.05;100295.44;5255336;33;33733;-86
2023/06/19 11:16:37;;;;;;;5.32;4.55;;;;;;;34.29;29.41;100293.47;5231139;33;34559;-86
2023/06/19 11:19:42;;;;;;;8.75;5.30;;;;;;;33.18;29.76;100292.47;5255076;33;34657;-86
2023/06/19 11:22:46;;;;;;;6.20;4.15;;;;;;;31.94;31.55;100287.47;5256297;33;33918;-86
2023/06/19 11:25:49;;;;;;;9.73;4.65;;;;;;;31.55;32.89;100294.66;5242575;33;33908;-86
2023/06/19 11:28:51;;;;;;;7.05;4.70;;;;;;;30.87;35.15;100282.81;5236148;33;34685;-85
2023/06/19 11:32:06;;;;;;;6.12;4.50;;;;;;;31.19;34.13;100284.47;5238711;33;34037;-86
2023/06/19 11:35:12;;;;;;;6.18;4.43;;;;;;;34.03;30.33;100271.25;5244688;33;33746;-86
2023/06/19 11:38:29;;;;;;;5.35;4.53;;;;;;;35.70;27.06;100280.59;5228155;33;33973;-86
2023/06/19 11:41:31;;;;;;;5.00;4.20;;;;;;;37.08;25.62;100268.38;5245290;33;33634;-86
2023/06/19 11:44:34;;;;;;;4.55;4.03;;;;;;;38.48;23.57;100279.06;5225380;33;34735;-86
2023/06/19 11:47:40;;;;;;;6.93;4.00;;;;;;;36.91;24.60;100267.50;5231320;33;34506;-86
2023/06/19 11:50:44;;;;;;;5.97;4.10;;;;;;;36.12;26.12;100258.75;5251619;33;34148;-86
2023/06/19 11:53:46;;;;;;;5.78;4.20;;;;;;;35.67;27.66;100262.50;5259781;33;35057;-86
2023/06/19 11:56:50;;;;;;;6.72;4.12;;;;;;;34.75;28.87;100267.31;5234691;33;33531;-86
2023/06/19 11:59:52;;;;;;;4.43;4.03;;;;;;;34.37;28.29;100259.06;5228078;33;33875;-86
2023/06/19 12:02:57;;;;;;;5.10;4.60;;;;;;;34.65;28.54;100250.13;5229961;33;33960;-86
2023/06/19 12:06:00;;;;;;;7.93;4.28;;;;;;;35.53;27.40;100262.00;5243160;33;33820;-86
2023/06/19 12:09:05;;;;;;;10.00;4.62;;;;;;;37.72;24.57;100255.19;5245345;33;34654;-86
2023/06/19 12:12:09;;;;;;;4.72;4.25;;;;;;;39.54;23.46;100256.16;5241994;33;33853;-86
2023/06/19 12:15:12;;;;;;;7.60;4.15;;;;;;;37.74;24.04;100256.47;5238706;33;34601;-86
2023/06/19 12:18:15;;;;;;;5.12;4.45;;;;;;;36.17;26.23;100250.09;5213617;34;33810;-86
2023/06/19 12:21:18;;;;;;;4.30;3.90;;;;;;;36.90;28.08;100245.41;5249693;33;33974;-86
2023/06/19 12:24:39;;;;;;;5.20;4.37;;;;;;;38.47;23.20;100249.31;5256005;33;33624;-86
2023/06/19 12:27:42;;;;;;;4.40;4.00;;;;;;;38.08;23.38;100240.78;5258735;33;35041;-85
2023/06/19 12:30:46;;;;;;;6.97;4.07;;;;;;;37.78;23.89;100237.69;5235174;33;34176;-86
2023/06/19 12:33:48;;;;;;;6.50;4.78;;;;;;;38.98;23.19;100237.06;5234499;33;33552;-86
2023/06/19 12:36:51;;;;;;;6.53;4.12;;;;;;;40.96;20.67;100227.50;5230087;33;33920;-90
2023/06/19 12:39:54;;;;;;;5.03;4.32;;;;;;;42.37;19.85;100221.69;5220186;33;33844;-90
2023/06/19 12:42:57;;;;;;;6.68;4.00;;;;;;;42.42;20.59;100222.12;5247556;33;34672;-89
2023/06/19 12:46:00;;;;;;;5.55;3.90;;;;;;;43.53;17.88;100219.50;5255147;33;33694;-91
2023/06/19 12:49:04;;;;;;;4.85;3.90;;;;;;;44.55;17.53;100213.97;5241546;33;34006;-85
2023/06/19 12:52:07;;;;;;;7.68;4.40;;;;;;;45.00;16.67;100213.28;5243184;33;34482;-86
2023/06/19 12:55:10;;;;;;;3.95;3.55;;;;;;;44.36;17.92;100212.41;5251741;33;33899;-86
2023/06/19 12:58:13;;;;;;;4.72;4.03;;;;;;;43.57;17.88;100205.34;5245884;33;34822;-86
2023/06/19 13:01:17;;;;;;;4.40;3.95;;;;;;;40.32;20.50;100202.16;5226256;34;34749;-85
2023/06/19 13:04:20;;;;;;;5.07;4.40;;;;;;;37.32;23.67;100203.63;5237026;33;33403;-86
2023/06/19 13:07:23;;;;;;;5.12;4.47;;;;;;;36.17;25.44;100208.06;5246541;33;33763;-86
2023/06/19 13:10:26;;;;;;;5.37;4.20;;;;;;;35.58;25.98;100200.22;5223659;34;34904;-85
2023/06/19 13:13:31;;;;;;;6.70;4.18;;;;;;;38.32;22.60;100208.78;5224031;34;34707;-86
2023/06/19 13:16:33;;;;;;;6.37;4.60;;;;;;;41.12;19.90;100193.34;5225867;33;34675;-86
2023/06/19 13:19:48;;;;;;;4.90;4.40;;;;;;;42.49;18.33;100198.69;5257883;33;34020;-86
2023/06/19 13:22:52;;;;;;;7.57;4.12;;;;;;;40.15;20.66;100191.44;5254689;33;33512;-86
2023/06/19 13:25:55;;;;;;;4.78;4.32;;;;;;;38.01;22.80;100187.25;5237394;33;33603;-86
2023/06/19 13:28:58;;;;;;;4.82;4.30;;;;;;;35.78;25.64;100190.03;5250599;33;33836;-86
2023/06/19 13:32:02;;;;;;;5.45;4.43;;;;;;;34.98;26.63;100191.34;5236296;33;34884;-86
2023/06/19 13:35:06;;;;;;;8.80;4.60;;;;;;;33.18;28.82;100194.81;5254520;33;34999;-86
2023/06/19 13:38:10;;;;;;;5.30;4.80;;;;;;;32.77;29.59;100200.97;5241893;33;33647;-86
2023/06/19 13:41:13;;;;;;;5.65;4.82;;;;;;;32.63;30.28;100200.34;5228255;33;33408;-85
2023/06/19 13:44:16;;;;;;;9.95;4.85;;;;;;;32.66;31.21;100194.91;5252289;33;32369;-85
2023/06/19 13:47:18;;;;;;;5.10;4.60;;;;;;;32.56;30.78;100189.72;5247992;33;34731;-85
2023/06/19 13:50:22;;;;;;;7.78;4.95;;;;;;;32.07;31.21;100189.03;5253528;33;33910;-86
2023/06/19 13:53:28;;;;;;;5.68;4.78;;;;;;;31.96;31.46;100193.28;5252547;33;33948;-85
2023/06/19 13:56:31;;;;;;;8.30;4.90;;;;;;;31.47;31.89;100198.06;5236372;33;33463;-86
2023/06/19 13:59:34;;;;;;;7.45;4.93;;;;;;;31.52;32.67;100195.12;5266032;33;32615;-86
2023/06/19 14:02:37;;;;;;;5.18;4.68;;;;;;;31.39;32.58;100194.94;5247256;33;33216;-85
2023/06/19 14:05:41;;;;;;;7.28;5.32;;;;;;;30.92;33.00;100190.94;5240713;33;33453;-86
2023/06/19 14:08:44;;;;;;;8.80;5.32;;;;;;;30.82;34.47;100193.97;5251507;33;34043;-85
2023/06/19 14:11:48;;;;;;;8.25;4.80;;;;;;;31.47;31.87;100187.75;5240227;33;33759;-85
2023/06/19 14:14:51;;;;;;;11.93;5.18;;;;;;;32.20;31.50;100184.44;5251543;33;33649;-85
2023/06/19 14:17:54;;;;;;;6.97;5.07;;;;;;;32.77;30.93;100175.06;5251552;33;33588;-85
2023/06/19 14:20:57;;;;;;;7.70;4.75;;;;;;;33.03;29.66;100180.59;5226681;33;33599;-85
2023/06/19 14:24:00;;;;;;;6.57;5.22;;;;;;;33.87;28.35;100178.84;5211750;34;34312;-85
2023/06/19 14:27:03;;;;;;;7.57;5.10;;;;;;;33.58;28.91;100176.91;5223709;34;34007;-86
2023/06/19 14:30:08;;;;;;;6.12;4.90;;;;;;;33.13;29.13;100174.62;5211057;34;34706;-86
2023/06/19 14:33:14;;;;;;;7.28;5.20;;;;;;;32.75;30.28;100170.62;5222727;34;33927;-86
2023/06/19 14:36:18;;;;;;;7.22;4.87;;;;;;;32.66;31.90;100175.41;5223721;34;33915;-86
2023/06/19 14:39:20;;;;;;;7.10;4.85;;;;;;;32.27;31.27;100179.22;5232208;33;33909;-86
2023/06/19 14:42:24;;;;;;;7.18;4.40;;;;;;;31.83;30.83;100183.91;5231888;33;35118;-90
2023/06/19 14:45:27;;;;;;;5.82;4.85;;;;;;;31.46;31.96;100168.59;5254946;33;162402;-90
2023/06/19 14:48:30;;;;;;;6.35;5.05;;;;;;;31.26;32.29;100170.78;5248186;33;34689;-90
2023/06/19 14:51:33;;;;;;;6.28;5.07;;;;;;;30.97;32.64;100185.22;5249520;33;33964;-89
2023/06/19 14:54:36;;;;;;;5.50;5.00;;;;;;;31.13;33.08;100174.50;5224745;33;34366;-86
2023/06/19 14:57:39;;;;;;;7.65;4.97;;;;;;;31.32;33.24;100180.63;5222213;34;34678;-85
2023/06/19 15:00:42;;;;;;;7.32;4.53;;;;;;;31.51;31.36;100177.62;5231170;34;34958;-85
2023/06/19 15:03:45;;;;;;;7.75;5.07;;;;;;;31.37;32.36;100172.16;5237385;34;34117;-85
2023/06/19 15:06:48;;;;;;;7.18;5.50;;;;;;;31.03;32.39;100174.78;5235420;33;34693;-85
2023/06/19 15:09:51;;;;;;;7.00;5.45;;;;;;;30.97;33.08;100176.06;5230696;33;33391;-85
2023/06/19 15:12:54;;;;;;;9.02;4.68;;;;;;;31.05;32.85;100172.50;5254592;33;34716;-85
2023/06/19 15:15:58;;;;;;;6.10;5.20;;;;;;;31.00;32.41;100169.84;5255920;33;33904;-85
2023/06/19 15:19:01;;;;;;;6.75;5.05;;;;;;;31.34;33.49;100167.22;5255269;33;33878;-85
2023/06/19 15:22:04;;;;;;;6.75;5.30;;;;;;;31.40;31.70;100170.72;5242666;33;33868;-85
2023/06/19 15:25:08;;;;;;;10.93;5.22;;;;;;;31.24;33.09;100164.75;5243594;33;34577;-85
2023/06/19 15:28:10;;;;;;;6.55;5.12;;;;;;;31.21;32.42;100167.31;5233141;33;34761;-85
2023/06/19 15:31:15;;;;;;;10.65;5.40;;;;;;;31.12;33.70;100159.78;5244152;33;33996;-85
2023/06/19 15:34:18;;;;;;;7.22;5.07;;;;;;;31.00;32.27;100169.84;5256990;33;33812;-85
2023/06/19 15:37:21;;;;;;;6.70;5.18;;;;;;;30.63;32.58;100169.16;5245170;33;33960;-85
2023/06/19 15:40:26;;;;;;;5.68;5.05;;;;;;;30.52;33.47;100168.56;5233244;33;34286;-85
2023/06/19 15:43:30;;;;;;;6.95;5.10;;;;;;;30.64;33.84;100181.91;5256362;33;33639;-85
2023/06/19 15:46:33;;;;;;;6.07;5.10;;;;;;;30.68;33.62;100174.56;5243580;33;33988;-85
2023/06/19 15:49:37;;;;;;;6.50;4.68;;;;;;;30.69;34.31;100174.25;5231197;33;34263;-85
